Time;durP1;ratioP1;P1;durP2;ratioP2;P2;SDS_P1;SDS_P2;PMS_P1;PMS_P2;Temp;Humidity;BMP_temperature;BMP_pressure;BME280_temperature;BME280_humidity;BME280_pressure;Samples;Min_cycle;Max_cycle;Signal;HPM_P1;HPM_P2
2023/08/30 00:00:22;;;;;;;1.60;1.50;;;20.50;81.80;;;;;;5052684;28;20466;-51
2023/08/30 00:02:50;;;;;;;1.93;1.63;;;20.50;82.10;;;;;;5056884;28;20542;-51
2023/08/30 00:05:19;;;;;;;2.20;1.73;;;20.50;81.30;;;;;;5029023;28;20487;-51
2023/08/30 00:07:47;;;;;;;2.23;2.03;;;20.50;80.80;;;;;;5063912;28;21012;-52
2023/08/30 00:10:16;;;;;;;1.67;1.57;;;20.50;80.20;;;;;;5051487;28;20461;-51
2023/08/30 00:12:46;;;;;;;1.83;1.73;;;20.50;80.60;;;;;;5035796;28;20444;-50
2023/08/30 00:15:15;;;;;;;1.40;1.30;;;20.40;80.80;;;;;;5044750;28;20467;-50
2023/08/30 00:17:45;;;;;;;1.50;1.40;;;20.40;81.70;;;;;;5052227;28;21066;-49
2023/08/30 00:20:13;;;;;;;1.63;1.53;;;20.50;82.00;;;;;;5047058;28;20825;-50
2023/08/30 00:22:42;;;;;;;1.70;1.30;;;20.40;82.50;;;;;;5055799;28;20446;-50
2023/08/30 00:25:11;;;;;;;1.90;1.60;;;20.40;82.10;;;;;;5051461;28;20471;-49
2023/08/30 00:27:39;;;;;;;1.63;1.40;;;20.50;82.50;;;;;;5051857;28;20484;-52
2023/08/30 00:30:11;;;;;;;2.20;2.00;;;20.50;82.50;;;;;;5055977;28;20487;-51
2023/08/30 00:32:40;;;;;;;1.40;1.30;;;20.40;82.20;;;;;;5055268;28;20852;-51
2023/08/30 00:35:09;;;;;;;1.50;1.40;;;20.40;82.30;;;;;;5052920;28;20475;-51
2023/08/30 00:37:38;;;;;;;1.97;1.33;;;20.40;82.70;;;;;;5054768;28;20725;-51
2023/08/30 00:40:07;;;;;;;3.00;1.73;;;20.40;84.70;;;;;;5049401;28;20857;-51
2023/08/30 00:42:36;;;;;;;3.80;1.70;;;20.40;85.40;;;;;;5056646;28;20467;-51
2023/08/30 00:45:04;;;;;;;1.90;1.70;;;20.40;87.90;;;;;;5051278;28;20457;-51
2023/08/30 00:47:35;;;;;;;2.10;1.50;;;20.50;76.60;;;;;;5050347;28;20521;-51
2023/08/30 00:50:04;;;;;;;2.30;1.60;;;20.40;75.30;;;;;;5049389;28;20471;-51
2023/08/30 00:52:34;;;;;;;1.73;1.63;;;20.40;75.00;;;;;;5055538;28;20482;-51
2023/08/30 00:55:03;;;;;;;1.60;1.30;;;20.50;74.90;;;;;;5054666;28;20810;-51
2023/08/30 00:57:31;;;;;;;1.87;1.70;;;20.40;74.70;;;;;;5050919;28;20517;-52
2023/08/30 01:00:00;;;;;;;2.10;1.90;;;20.40;74.50;;;;;;5054275;28;21036;-51
2023/08/30 01:02:29;;;;;;;1.37;1.20;;;20.40;74.20;;;;;;5056172;28;20456;-51
2023/08/30 01:04:59;;;;;;;1.97;1.77;;;20.40;74.20;;;;;;5056144;28;20466;-51
2023/08/30 01:07:28;;;;;;;1.70;1.60;;;20.40;74.20;;;;;;5049926;28;20502;-51
2023/08/30 01:09:57;;;;;;;2.00;1.50;;;20.40;74.30;;;;;;5051715;28;20432;-51
2023/08/30 01:12:34;;;;;;;1.67;1.33;;;20.40;74.20;;;;;;5055162;28;20522;-51
2023/08/30 01:15:10;;;;;;;1.70;1.60;;;20.40;74.20;;;;;;5049634;28;20482;-52
2023/08/30 01:17:42;;;;;;;2.17;1.83;;;20.40;74.20;;;;;;5057433;28;20465;-51
2023/08/30 01:20:17;;;;;;;2.40;1.50;;;20.40;74.20;;;;;;5050663;28;21380;-51
2023/08/30 01:22:54;;;;;;;2.30;1.50;;;20.40;74.20;;;;;;5064685;28;20447;-50
2023/08/30 01:25:34;;;;;;;1.73;1.63;;;20.40;74.10;;;;;;5048663;28;20501;-50
2023/08/30 01:28:06;;;;;;;1.70;1.40;;;20.40;74.10;;;;;;5052207;28;20570;-52
2023/08/30 01:30:38;;;;;;;1.93;1.53;;;20.40;74.10;;;;;;5051376;28;20455;-52
2023/08/30 01:33:08;;;;;;;2.60;1.60;;;20.40;74.00;;;;;;5082825;28;20434;-51
2023/08/30 01:35:40;;;;;;;2.53;2.10;;;20.40;74.10;;;;;;5052133;28;20467;-51
2023/08/30 01:38:10;;;;;;;1.90;1.70;;;20.40;74.00;;;;;;5057676;28;20462;-51
2023/08/30 01:40:42;;;;;;;1.97;1.77;;;20.40;74.10;;;;;;5049926;28;20469;-52
2023/08/30 01:43:12;;;;;;;2.83;2.00;;;20.40;74.00;;;;;;5050830;28;20493;-51
2023/08/30 01:45:43;;;;;;;2.43;2.17;;;20.40;73.80;;;;;;5049665;28;20475;-51
2023/08/30 01:48:13;;;;;;;2.10;1.90;;;20.40;73.80;;;;;;5047452;28;20462;-51
2023/08/30 01:50:44;;;;;;;2.63;1.80;;;20.40;73.80;;;;;;5047856;28;20501;-51
2023/08/30 01:53:14;;;;;;;1.70;1.60;;;20.40;73.80;;;;;;5046629;28;20439;-51
2023/08/30 01:55:44;;;;;;;1.97;1.73;;;20.40;73.80;;;;;;5049520;28;20478;-51
2023/08/30 01:58:14;;;;;;;2.07;1.87;;;20.30;73.60;;;;;;5054205;28;20451;-51
2023/08/30 02:00:43;;;;;;;1.83;1.73;;;20.40;73.70;;;;;;5047573;28;20470;-51
2023/08/30 02:03:13;;;;;;;2.60;2.40;;;20.30;73.60;;;;;;5053786;28;20951;-52
2023/08/30 02:05:49;;;;;;;2.57;2.37;;;20.30;73.60;;;;;;5051298;28;21006;-51
2023/08/30 02:08:18;;;;;;;2.57;2.20;;;20.30;73.60;;;;;;5050990;28;20477;-51
2023/08/30 02:10:53;;;;;;;2.70;2.10;;;20.30;73.40;;;;;;5050363;28;20456;-52
2023/08/30 02:13:27;;;;;;;2.37;2.17;;;20.30;73.30;;;;;;5052590;28;20804;-52
2023/08/30 02:15:57;;;;;;;3.90;2.10;;;20.30;73.30;;;;;;5054430;28;20822;-51
2023/08/30 02:18:27;;;;;;;2.37;2.17;;;20.30;73.20;;;;;;5056215;28;20460;-52
2023/08/30 02:20:58;;;;;;;2.57;2.37;;;20.30;73.10;;;;;;5034008;28;21089;-51
2023/08/30 02:23:26;;;;;;;2.53;2.30;;;20.30;72.80;;;;;;5054872;28;20566;-51
2023/08/30 02:25:56;;;;;;;2.00;1.90;;;20.30;73.10;;;;;;5034902;28;20455;-51
2023/08/30 02:28:26;;;;;;;2.13;1.93;;;20.30;73.10;;;;;;5051420;28;20475;-51
2023/08/30 02:30:55;;;;;;;2.23;2.03;;;20.30;73.10;;;;;;5054574;28;20470;-50
2023/08/30 02:33:23;;;;;;;2.70;2.27;;;20.30;73.10;;;;;;5051224;28;20457;-50
2023/08/30 02:35:53;;;;;;;2.17;1.80;;;20.30;73.00;;;;;;5051213;28;20470;-50
2023/08/30 02:38:22;;;;;;;2.63;2.40;;;20.30;73.10;;;;;;5054127;28;20558;-51
2023/08/30 02:40:50;;;;;;;3.10;1.60;;;20.30;73.10;;;;;;5049602;28;20469;-50
2023/08/30 02:43:19;;;;;;;2.50;2.30;;;20.30;73.20;;;;;;5042208;28;20479;-51
2023/08/30 02:45:49;;;;;;;2.47;2.27;;;20.30;73.10;;;;;;5049938;28;20518;-51
2023/08/30 02:48:19;;;;;;;2.80;2.03;;;20.30;73.10;;;;;;5084154;28;20466;-51
2023/08/30 02:50:47;;;;;;;2.00;1.80;;;20.30;73.00;;;;;;5029372;28;20486;-51
2023/08/30 02:53:16;;;;;;;3.10;2.07;;;20.30;73.00;;;;;;5046009;28;20557;-51
2023/08/30 02:55:45;;;;;;;2.47;2.27;;;20.30;72.90;;;;;;5047970;28;20487;-51
2023/08/30 02:58:13;;;;;;;2.20;2.00;;;20.30;72.90;;;;;;5047231;28;20462;-51
2023/08/30 03:00:42;;;;;;;2.03;1.70;;;20.30;72.90;;;;;;5045584;28;21088;-51
2023/08/30 03:03:12;;;;;;;2.73;1.80;;;20.30;73.00;;;;;;5057408;28;20802;-51
2023/08/30 03:05:41;;;;;;;2.50;2.27;;;20.30;72.90;;;;;;5061104;28;20481;-51
2023/08/30 03:08:09;;;;;;;1.50;1.40;;;20.30;72.90;;;;;;5056799;28;20538;-51
2023/08/30 03:10:39;;;;;;;2.50;1.80;;;20.20;74.00;;;;;;5059685;28;20466;-51
2023/08/30 03:13:08;;;;;;;2.67;2.17;;;20.30;72.80;;;;;;5057474;28;20439;-51
2023/08/30 03:15:37;;;;;;;2.17;1.90;;;20.20;72.70;;;;;;5056026;28;20467;-51
2023/08/30 03:18:06;;;;;;;2.20;2.00;;;20.20;72.70;;;;;;5054382;28;20462;-51
2023/08/30 03:20:36;;;;;;;2.00;1.70;;;20.20;72.60;;;;;;5052146;28;20559;-50
2023/08/30 03:23:05;;;;;;;2.30;2.10;;;20.20;72.60;;;;;;5053929;28;20850;-51
2023/08/30 03:25:34;;;;;;;2.83;2.53;;;20.20;72.50;;;;;;5057501;28;20879;-50
2023/08/30 03:28:03;;;;;;;2.70;2.30;;;20.20;72.20;;;;;;5054053;28;20463;-52
2023/08/30 03:30:31;;;;;;;2.43;2.10;;;20.20;72.30;;;;;;5056896;28;20470;-52
2023/08/30 03:33:00;;;;;;;3.70;2.30;;;20.20;72.20;;;;;;5058771;28;20442;-50
2023/08/30 03:35:29;;;;;;;2.53;2.33;;;20.20;72.20;;;;;;5048327;28;20762;-52
2023/08/30 03:37:59;;;;;;;3.70;3.17;;;20.20;72.40;;;;;;5059287;28;20457;-50
2023/08/30 03:40:27;;;;;;;2.37;2.17;;;20.20;72.10;;;;;;5057807;28;20497;-51
2023/08/30 03:42:56;;;;;;;4.80;2.70;;;20.20;72.20;;;;;;5052385;28;20782;-51
2023/08/30 03:45:24;;;;;;;2.60;2.40;;;20.20;72.10;;;;;;5051489;28;20518;-51
2023/08/30 03:47:53;;;;;;;2.63;2.40;;;20.20;72.10;;;;;;5059644;28;20541;-52
2023/08/30 03:50:21;;;;;;;2.30;2.10;;;20.20;71.90;;;;;;5047905;28;20479;-51
2023/08/30 03:52:50;;;;;;;2.63;2.00;;;20.20;72.00;;;;;;5052955;28;20439;-51
2023/08/30 03:55:21;;;;;;;3.70;1.80;;;20.20;72.20;;;;;;5053226;28;20460;-51
2023/08/30 03:57:49;;;;;;;2.63;1.70;;;20.20;72.30;;;;;;5053737;28;20816;-51
2023/08/30 04:00:18;;;;;;;2.10;1.60;;;20.20;72.50;;;;;;5053376;28;20523;-51
2023/08/30 04:02:47;;;;;;;2.60;1.50;;;20.20;72.50;;;;;;5053311;28;20899;-52
2023/08/30 04:05:15;;;;;;;1.57;1.47;;;20.20;72.50;;;;;;5033885;28;20564;-50
2023/08/30 04:07:44;;;;;;;1.93;1.80;;;20.20;72.50;;;;;;5059226;28;20455;-52
2023/08/30 04:10:12;;;;;;;1.97;1.87;;;20.20;72.50;;;;;;5053931;28;20494;-51
2023/08/30 04:12:43;;;;;;;2.10;1.90;;;20.20;72.60;;;;;;5049317;28;20457;-51
2023/08/30 04:15:12;;;;;;;2.23;2.00;;;20.20;72.50;;;;;;5053745;28;20801;-51
2023/08/30 04:17:41;;;;;;;1.67;1.53;;;20.20;72.50;;;;;;5059417;28;20449;-51
2023/08/30 04:20:11;;;;;;;2.07;1.87;;;20.20;72.40;;;;;;5052267;28;20485;-51
2023/08/30 04:22:39;;;;;;;2.10;1.80;;;20.20;72.50;;;;;;5067115;28;20439;-51
2023/08/30 04:25:09;;;;;;;1.90;1.70;;;20.20;72.50;;;;;;5050653;28;20558;-52
2023/08/30 04:27:38;;;;;;;1.70;1.60;;;20.20;72.40;;;;;;5052213;28;20987;-52
2023/08/30 04:30:10;;;;;;;3.00;1.73;;;20.20;72.30;;;;;;5050508;28;20680;-50
2023/08/30 04:32:39;;;;;;;2.40;2.03;;;20.20;72.40;;;;;;5052508;28;20448;-51
2023/08/30 04:35:09;;;;;;;2.20;1.67;;;20.20;72.40;;;;;;5049386;28;20491;-51
2023/08/30 04:37:39;;;;;;;2.00;1.80;;;20.10;72.40;;;;;;5054659;28;20455;-50
2023/08/30 04:40:09;;;;;;;1.40;1.30;;;20.20;72.50;;;;;;5054169;28;20515;-50
2023/08/30 04:42:38;;;;;;;1.60;1.50;;;20.10;72.60;;;;;;5058703;28;20513;-52
2023/08/30 04:45:09;;;;;;;2.37;1.87;;;20.10;72.60;;;;;;5049835;28;20478;-51
2023/08/30 04:47:38;;;;;;;1.90;1.77;;;20.10;72.50;;;;;;5039386;28;20467;-51
2023/08/30 04:50:07;;;;;;;2.67;1.93;;;20.10;72.40;;;;;;5054205;28;20476;-51
2023/08/30 04:52:36;;;;;;;2.03;1.87;;;20.10;73.60;;;;;;5051703;28;20471;-51
2023/08/30 04:55:06;;;;;;;2.40;2.10;;;20.10;72.30;;;;;;5055411;28;20442;-49
2023/08/30 04:57:34;;;;;;;2.23;2.03;;;20.10;72.20;;;;;;5052681;28;20473;-51
2023/08/30 05:00:06;;;;;;;1.90;1.77;;;20.10;72.50;;;;;;5050393;28;20479;-50
2023/08/30 05:02:36;;;;;;;2.20;2.00;;;20.10;73.70;;;;;;5055696;28;20466;-52
2023/08/30 05:05:08;;;;;;;1.97;1.73;;;20.10;72.60;;;;;;5051731;28;20823;-51
2023/08/30 05:07:37;;;;;;;1.80;1.70;;;20.10;72.60;;;;;;5052383;28;20455;-51
2023/08/30 05:10:07;;;;;;;2.40;1.90;;;20.10;72.70;;;;;;5053117;28;20558;-51
2023/08/30 05:12:36;;;;;;;1.60;1.37;;;20.10;72.50;;;;;;5057876;28;20452;-52
2023/08/30 05:15:05;;;;;;;1.80;1.50;;;20.10;72.40;;;;;;5053991;28;20435;-50
2023/08/30 05:17:33;;;;;;;2.20;1.87;;;20.10;72.50;;;;;;5050170;28;20820;-51
2023/08/30 05:20:05;;;;;;;2.03;1.83;;;20.10;72.50;;;;;;5056077;28;20438;-51
2023/08/30 05:22:34;;;;;;;1.87;1.50;;;20.10;72.60;;;;;;5046266;28;20448;-50
2023/08/30 05:25:05;;;;;;;2.53;1.77;;;20.10;72.60;;;;;;5057213;28;20808;-50
2023/08/30 05:27:34;;;;;;;1.83;1.73;;;20.10;72.70;;;;;;5050369;28;20486;-50
2023/08/30 05:30:03;;;;;;;1.60;1.33;;;20.10;72.80;;;;;;5048288;28;20478;-51
2023/08/30 05:32:32;;;;;;;2.03;1.83;;;20.10;72.80;;;;;;5053813;28;20442;-50
2023/08/30 05:35:21;;;;;;;2.27;1.97;;;20.10;72.70;;;;;;5053015;28;21068;-51
2023/08/30 05:38:09;;;;;;;2.30;2.10;;;20.10;72.70;;;;;;5053060;28;20465;-52
2023/08/30 05:40:57;;;;;;;3.97;3.10;;;20.00;72.60;;;;;;5050633;27;20938;-51
2023/08/30 05:43:26;;;;;;;1.83;1.63;;;20.00;73.60;;;;;;5055421;28;21032;-51
2023/08/30 05:45:54;;;;;;;3.20;2.70;;;20.00;72.60;;;;;;5046543;28;20483;-50
2023/08/30 05:48:23;;;;;;;2.10;1.90;;;20.00;72.20;;;;;;5055798;28;20528;-50
2023/08/30 05:50:53;;;;;;;2.07;1.83;;;20.00;72.50;;;;;;5048874;28;20575;-50
2023/08/30 05:53:21;;;;;;;3.00;2.70;;;20.00;72.40;;;;;;5052775;28;20525;-50
2023/08/30 05:55:50;;;;;;;1.93;1.73;;;20.00;72.00;;;;;;5050167;28;20471;-52
2023/08/30 05:58:19;;;;;;;2.77;2.27;;;20.00;72.40;;;;;;5050008;28;20465;-50
2023/08/30 06:00:48;;;;;;;2.80;2.07;;;20.00;72.40;;;;;;5053195;28;21025;-52
2023/08/30 06:03:16;;;;;;;3.67;3.37;;;20.00;72.40;;;;;;5051530;28;20444;-51
2023/08/30 06:05:45;;;;;;;4.17;3.77;;;20.00;71.90;;;;;;5052949;28;20503;-51
2023/08/30 06:08:15;;;;;;;3.93;2.63;;;20.00;71.50;;;;;;5049531;28;20492;-49
2023/08/30 06:10:44;;;;;;;2.73;2.03;;;20.00;72.10;;;;;;5053752;28;20478;-51
2023/08/30 06:13:12;;;;;;;2.37;2.17;;;20.00;71.90;;;;;;5051843;28;20821;-50
2023/08/30 06:15:41;;;;;;;2.60;2.40;;;20.00;71.90;;;;;;5035189;28;21120;-51
2023/08/30 06:18:09;;;;;;;2.57;2.13;;;20.00;71.90;;;;;;5048782;28;20962;-52
2023/08/30 06:20:41;;;;;;;2.80;2.53;;;20.00;72.00;;;;;;5050631;28;20563;-51
2023/08/30 06:23:10;;;;;;;2.30;2.10;;;19.90;71.50;;;;;;5054285;28;20422;-51
2023/08/30 06:25:40;;;;;;;3.20;2.47;;;20.00;71.80;;;;;;5053817;28;20479;-51
2023/08/30 06:28:09;;;;;;;3.50;3.00;;;20.00;71.80;;;;;;5046706;28;20489;-49
2023/08/30 06:30:38;;;;;;;3.73;3.33;;;20.00;71.60;;;;;;5048180;28;20505;-49
2023/08/30 06:33:06;;;;;;;2.60;2.03;;;19.90;71.10;;;;;;5055055;28;20437;-49
2023/08/30 06:35:39;;;;;;;2.97;2.13;;;20.00;71.60;;;;;;5047256;28;20487;-50
2023/08/30 06:38:07;;;;;;;5.47;3.60;;;19.90;71.70;;;;;;5047043;28;20495;-52
2023/08/30 06:40:37;;;;;;;3.43;2.90;;;19.90;71.20;;;;;;5054079;28;20462;-51
2023/08/30 06:43:07;;;;;;;5.30;2.77;;;19.90;71.50;;;;;;5050213;28;20516;-51
2023/08/30 06:45:35;;;;;;;2.80;2.43;;;19.90;71.40;;;;;;5047789;28;20500;-51
2023/08/30 06:48:05;;;;;;;4.40;3.10;;;19.90;71.20;;;;;;5052028;28;20514;-51
2023/08/30 06:50:37;;;;;;;3.87;2.77;;;19.90;71.10;;;;;;5050616;28;20470;-51
2023/08/30 06:53:05;;;;;;;2.70;2.50;;;19.90;71.20;;;;;;5054926;28;20449;-50
2023/08/30 06:55:35;;;;;;;1.90;1.80;;;19.90;70.80;;;;;;5052597;28;20483;-51
2023/08/30 06:58:06;;;;;;;2.60;2.40;;;19.90;72.40;;;;;;5056208;28;20560;-51
2023/08/30 07:00:36;;;;;;;2.60;2.13;;;19.90;71.00;;;;;;5051190;28;20850;-51
2023/08/30 07:03:05;;;;;;;3.23;2.90;;;19.90;71.20;;;;;;5055938;28;20494;-51
2023/08/30 07:05:34;;;;;;;2.93;2.63;;;19.90;70.50;;;;;;5048553;28;20483;-51
2023/08/30 07:08:02;;;;;;;3.20;2.60;;;19.90;70.20;;;;;;5046942;28;20453;-49
2023/08/30 07:10:31;;;;;;;3.13;2.83;;;19.90;70.40;;;;;;5047042;28;20574;-46
2023/08/30 07:13:00;;;;;;;5.57;2.80;;;19.90;70.50;;;;;;5051199;28;20531;-50
2023/08/30 07:15:28;;;;;;;2.93;2.63;;;19.90;71.00;;;;;;5048972;28;20479;-51
2023/08/30 07:17:58;;;;;;;3.03;1.90;;;19.90;70.90;;;;;;5049515;28;20532;-51
2023/08/30 07:20:27;;;;;;;4.10;2.40;;;19.90;71.20;;;;;;5051681;28;20501;-51
2023/08/30 07:22:55;;;;;;;3.23;2.00;;;19.90;71.30;;;;;;5054690;28;20443;-51
2023/08/30 07:25:24;;;;;;;2.07;1.80;;;19.90;71.20;;;;;;5046893;28;20589;-51
2023/08/30 07:27:52;;;;;;;2.23;1.97;;;19.90;72.60;;;;;;5052779;28;21068;-51
2023/08/30 07:30:21;;;;;;;3.27;2.30;;;20.00;71.60;;;;;;5050228;28;20553;-51
2023/08/30 07:32:49;;;;;;;2.23;2.03;;;20.00;71.40;;;;;;5052200;28;20492;-51
2023/08/30 07:35:19;;;;;;;2.63;2.43;;;20.00;71.30;;;;;;5047240;28;20550;-51
2023/08/30 07:37:48;;;;;;;3.10;2.50;;;20.00;71.50;;;;;;5052626;28;21007;-51
2023/08/30 07:40:16;;;;;;;2.70;2.43;;;20.00;71.40;;;;;;5047042;28;20478;-51
2023/08/30 07:42:45;;;;;;;2.37;2.17;;;20.00;71.50;;;;;;5049852;28;20441;-50
2023/08/30 07:45:14;;;;;;;2.23;2.03;;;20.00;71.50;;;;;;5043876;28;20897;-50
2023/08/30 07:47:42;;;;;;;2.37;2.17;;;20.00;71.40;;;;;;5055664;28;20465;-50
2023/08/30 07:50:11;;;;;;;3.00;1.70;;;20.00;71.40;;;;;;5055045;28;20474;-49
2023/08/30 07:52:41;;;;;;;2.20;2.00;;;20.00;71.30;;;;;;5063355;28;20475;-50
2023/08/30 07:55:14;;;;;;;1.63;1.43;;;20.00;70.70;;;;;;5054417;28;20458;-51
2023/08/30 07:57:43;;;;;;;2.30;2.00;;;20.00;71.30;;;;;;5044909;28;20527;-51
2023/08/30 08:00:13;;;;;;;3.40;1.80;;;20.00;71.10;;;;;;5056002;28;20449;-51
2023/08/30 08:02:45;;;;;;;2.20;2.00;;;20.00;71.10;;;;;;5061941;28;20444;-51
2023/08/30 08:05:14;;;;;;;3.00;2.17;;;20.00;71.20;;;;;;5049592;28;20499;-51
2023/08/30 08:07:44;;;;;;;2.33;2.03;;;20.00;71.20;;;;;;5061286;28;20450;-51
2023/08/30 08:10:13;;;;;;;2.30;1.93;;;20.00;71.40;;;;;;5054947;28;20449;-52
2023/08/30 08:12:48;;;;;;;1.90;1.80;;;20.00;72.10;;;;;;5057731;28;20480;-52
2023/08/30 08:15:16;;;;;;;2.10;1.87;;;20.00;71.40;;;;;;5053235;28;20449;-51
2023/08/30 08:17:45;;;;;;;2.27;2.07;;;20.00;71.50;;;;;;5051385;28;20480;-51
2023/08/30 08:20:14;;;;;;;2.30;2.10;;;20.00;71.40;;;;;;5052885;28;20511;-51
2023/08/30 08:22:44;;;;;;;2.20;2.00;;;20.00;71.10;;;;;;5054734;28;21660;-49
2023/08/30 08:25:13;;;;;;;1.87;1.77;;;20.00;71.30;;;;;;5053218;28;21029;-51
2023/08/30 08:27:41;;;;;;;2.00;1.80;;;19.90;67.10;;;;;;5057039;28;20484;-51
2023/08/30 08:30:11;;;;;;;2.00;1.73;;;19.90;67.40;;;;;;5048201;28;20584;-51
2023/08/30 08:32:39;;;;;;;2.47;2.07;;;19.90;67.60;;;;;;5059709;28;20468;-51
2023/08/30 08:35:09;;;;;;;2.63;2.33;;;19.90;67.70;;;;;;5048534;28;20781;-51
2023/08/30 08:37:37;;;;;;;4.80;2.67;;;19.90;67.30;;;;;;5086545;28;20863;-51
2023/08/30 08:40:09;;;;;;;2.13;1.87;;;19.90;67.60;;;;;;5053637;28;20466;-51
2023/08/30 08:42:38;;;;;;;5.00;2.10;;;19.90;67.80;;;;;;5056454;28;20434;-51
2023/08/30 08:45:10;;;;;;;1.80;1.60;;;19.90;67.50;;;;;;5053397;28;20871;-51
2023/08/30 08:47:39;;;;;;;2.10;1.90;;;19.90;67.90;;;;;;5052225;28;20469;-51
2023/08/30 08:50:09;;;;;;;1.87;1.67;;;19.90;67.90;;;;;;5058258;28;20865;-51
2023/08/30 08:52:38;;;;;;;1.70;1.60;;;19.90;67.80;;;;;;5055673;28;20477;-51
2023/08/30 08:55:32;;;;;;;2.50;2.10;;;19.90;69.30;;;;;;5064067;28;20453;-51
2023/08/30 08:58:00;;;;;;;1.97;1.77;;;19.90;67.90;;;;;;5059774;28;20470;-51
2023/08/30 09:00:32;;;;;;;2.60;2.00;;;19.90;68.00;;;;;;5049918;28;20686;-51
2023/08/30 09:03:01;;;;;;;2.20;2.00;;;19.90;68.00;;;;;;5055654;28;20808;-51
2023/08/30 09:05:31;;;;;;;2.27;1.77;;;19.90;68.00;;;;;;5054923;28;20461;-51
2023/08/30 09:08:01;;;;;;;1.80;1.53;;;19.90;68.10;;;;;;5057336;28;21045;-51
2023/08/30 09:10:32;;;;;;;2.57;2.20;;;19.90;68.10;;;;;;5053530;28;20553;-52
2023/08/30 09:13:01;;;;;;;2.80;2.10;;;19.90;67.90;;;;;;5050518;28;20871;-50
2023/08/30 09:15:33;;;;;;;1.90;1.60;;;19.90;68.10;;;;;;5048710;27;20840;-49
2023/08/30 09:18:02;;;;;;;2.47;1.70;;;19.80;68.10;;;;;;5033871;28;20486;-50
2023/08/30 09:20:30;;;;;;;2.10;1.83;;;19.90;68.00;;;;;;5051874;28;20840;-51
2023/08/30 09:22:59;;;;;;;2.37;1.67;;;19.90;69.40;;;;;;5059738;28;20449;-51
2023/08/30 09:25:29;;;;;;;2.07;1.77;;;19.80;68.00;;;;;;5049766;28;20443;-51
2023/08/30 09:28:00;;;;;;;2.30;2.10;;;19.80;68.00;;;;;;5059560;28;20569;-51
2023/08/30 09:30:29;;;;;;;2.30;1.80;;;19.80;67.90;;;;;;5052704;28;20512;-51
2023/08/30 09:33:03;;;;;;;2.17;1.97;;;19.80;68.00;;;;;;5055427;28;20528;-52
2023/08/30 09:35:32;;;;;;;1.70;1.60;;;19.80;67.90;;;;;;5051009;28;22348;-51
2023/08/30 09:38:00;;;;;;;2.17;1.50;;;19.80;68.00;;;;;;5054765;28;20559;-51
2023/08/30 09:40:30;;;;;;;3.03;1.80;;;19.90;68.10;;;;;;5048725;28;20559;-51
2023/08/30 09:43:02;;;;;;;2.13;1.67;;;19.90;68.10;;;;;;5057094;28;20427;-51
2023/08/30 09:45:41;;;;;;;2.17;1.70;;;19.80;68.10;;;;;;5054308;28;20465;-50
2023/08/30 09:48:10;;;;;;;1.90;1.60;;;19.80;68.20;;;;;;5051995;28;20473;-50
2023/08/30 09:50:40;;;;;;;2.10;1.50;;;19.80;68.20;;;;;;5056693;28;20531;-50
2023/08/30 09:53:09;;;;;;;4.03;1.83;;;19.80;68.10;;;;;;5048419;28;20468;-50
2023/08/30 09:55:40;;;;;;;2.10;1.90;;;19.80;67.90;;;;;;5052690;28;20474;-50
2023/08/30 09:58:11;;;;;;;2.00;1.70;;;19.90;68.00;;;;;;5055652;28;20462;-49
2023/08/30 10:00:43;;;;;;;2.07;1.77;;;19.80;68.00;;;;;;5054232;28;21284;-49
2023/08/30 10:03:12;;;;;;;2.70;1.80;;;19.80;68.00;;;;;;5057209;28;20451;-50
2023/08/30 10:06:00;;;;;;;1.70;1.53;;;19.80;68.10;;;;;;5051663;28;20484;-50
2023/08/30 10:08:31;;;;;;;3.10;1.93;;;19.80;68.20;;;;;;5049214;28;20470;-51
2023/08/30 10:11:01;;;;;;;2.90;1.57;;;19.80;67.90;;;;;;5057800;28;20519;-51
2023/08/30 10:13:34;;;;;;;1.80;1.60;;;19.80;67.90;;;;;;5048683;28;20564;-51
2023/08/30 10:16:04;;;;;;;2.00;1.80;;;19.80;68.00;;;;;;5056046;28;20469;-51
2023/08/30 10:18:35;;;;;;;1.70;1.30;;;19.80;68.00;;;;;;5054779;28;20824;-51
2023/08/30 10:21:12;;;;;;;1.83;1.40;;;19.80;68.00;;;;;;5051804;28;20478;-50
2023/08/30 10:23:42;;;;;;;2.43;1.93;;;19.80;68.00;;;;;;5049325;28;20464;-50
2023/08/30 10:26:10;;;;;;;1.73;1.63;;;19.80;67.70;;;;;;5055495;28;20575;-51
2023/08/30 10:28:42;;;;;;;1.80;1.60;;;19.80;67.90;;;;;;5053616;28;21046;-51
2023/08/30 10:31:13;;;;;;;2.10;1.90;;;19.80;67.80;;;;;;5036621;28;20467;-51
2023/08/30 10:33:49;;;;;;;2.17;1.93;;;19.90;68.00;;;;;;5050397;28;20473;-51
2023/08/30 10:36:24;;;;;;;2.10;1.80;;;19.80;68.10;;;;;;5054187;28;20492;-50
2023/08/30 10:38:56;;;;;;;2.30;2.10;;;19.80;68.20;;;;;;5049286;28;20471;-49
2023/08/30 10:41:26;;;;;;;2.47;1.90;;;19.80;68.20;;;;;;5051528;28;20458;-50
2023/08/30 10:43:57;;;;;;;3.20;2.43;;;19.80;68.30;;;;;;5047719;28;20512;-51
2023/08/30 10:46:33;;;;;;;2.30;1.73;;;19.80;68.20;;;;;;5048318;28;20997;-50
2023/08/30 10:49:14;;;;;;;2.20;1.60;;;19.80;68.50;;;;;;5058943;28;20490;-51
2023/08/30 10:51:44;;;;;;;2.40;2.13;;;19.80;68.70;;;;;;5054045;28;20817;-50
2023/08/30 10:54:13;;;;;;;2.80;2.30;;;19.80;69.10;;;;;;5057187;28;20989;-51
2023/08/30 10:56:49;;;;;;;1.97;1.73;;;19.80;68.90;;;;;;5055488;28;20448;-52
2023/08/30 10:59:20;;;;;;;3.20;2.17;;;19.80;69.20;;;;;;5054191;28;20469;-52
2023/08/30 11:01:50;;;;;;;2.00;1.40;;;19.80;69.10;;;;;;5051685;28;20453;-52
2023/08/30 11:04:21;;;;;;;2.00;1.80;;;19.80;69.20;;;;;;5052124;28;20435;-52
2023/08/30 11:06:52;;;;;;;3.73;1.97;;;19.80;69.60;;;;;;5051614;28;20884;-51
2023/08/30 11:09:24;;;;;;;2.00;1.40;;;19.80;69.70;;;;;;5053700;28;20858;-51
2023/08/30 11:11:53;;;;;;;3.00;2.40;;;19.80;70.30;;;;;;5057134;28;20426;-51
2023/08/30 11:14:23;;;;;;;1.87;1.63;;;19.80;70.00;;;;;;5050813;28;20473;-51
2023/08/30 11:16:51;;;;;;;2.73;1.60;;;19.70;70.50;;;;;;5048504;28;20446;-51
2023/08/30 11:19:20;;;;;;;3.50;1.77;;;19.70;70.40;;;;;;5052064;28;20442;-51
2023/08/30 11:21:50;;;;;;;2.30;1.70;;;19.70;70.40;;;;;;5052284;28;20858;-51
2023/08/30 11:24:19;;;;;;;1.90;1.47;;;19.70;70.50;;;;;;5055083;28;20448;-51
2023/08/30 11:26:54;;;;;;;2.20;1.57;;;19.80;71.00;;;;;;5054956;28;20500;-51
2023/08/30 11:29:24;;;;;;;1.90;1.70;;;19.70;70.50;;;;;;5053091;28;20987;-51
2023/08/30 11:31:52;;;;;;;2.00;1.60;;;19.70;70.50;;;;;;5056428;28;20456;-51
2023/08/30 11:34:22;;;;;;;1.80;1.70;;;19.70;71.40;;;;;;5068639;28;20824;-51
2023/08/30 11:36:51;;;;;;;2.27;1.70;;;19.70;70.70;;;;;;5046982;28;20489;-51
2023/08/30 11:39:22;;;;;;;2.23;1.60;;;19.70;71.20;;;;;;5071744;28;20456;-51
2023/08/30 11:41:52;;;;;;;1.50;1.20;;;19.70;71.00;;;;;;5047077;28;20470;-51
2023/08/30 11:44:24;;;;;;;2.17;1.70;;;19.70;71.60;;;;;;5055943;28;20447;-51
2023/08/30 11:46:59;;;;;;;2.10;1.70;;;19.70;72.10;;;;;;5057974;28;20478;-51
2023/08/30 11:49:29;;;;;;;1.90;1.67;;;19.70;71.50;;;;;;5056137;28;20446;-51
2023/08/30 11:51:58;;;;;;;3.58;1.77;;;19.70;73.70;;;;;;5048243;28;20450;-51
2023/08/30 11:54:27;;;;;;;2.40;1.80;;;19.70;76.50;;;;;;5059622;28;20215;-51
2023/08/30 11:56:56;;;;;;;1.63;1.27;;;19.60;76.10;;;;;;5057961;28;20444;-51
2023/08/30 11:59:26;;;;;;;2.87;1.57;;;19.60;76.90;;;;;;5050877;28;20447;-51
2023/08/30 12:01:55;;;;;;;1.70;1.50;;;19.70;75.50;;;;;;5055606;28;20453;-51
2023/08/30 12:04:23;;;;;;;2.17;1.30;;;19.70;75.10;;;;;;5058954;28;21016;-51
2023/08/30 12:06:55;;;;;;;1.30;0.90;;;19.60;75.00;;;;;;5058425;28;20475;-51
2023/08/30 12:09:23;;;;;;;2.07;1.37;;;19.60;74.90;;;;;;5054598;28;20446;-51
2023/08/30 12:11:52;;;;;;;5.60;1.40;;;19.70;74.80;;;;;;5057048;28;20474;-52
2023/08/30 12:14:21;;;;;;;2.03;1.23;;;19.70;74.90;;;;;;5049181;28;20487;-51
2023/08/30 12:16:51;;;;;;;3.00;1.67;;;19.70;74.80;;;;;;5077280;28;20453;-51
2023/08/30 12:19:19;;;;;;;1.80;1.60;;;19.70;74.80;;;;;;5055549;28;20530;-51
2023/08/30 12:21:48;;;;;;;2.40;1.50;;;19.70;74.40;;;;;;5082308;28;20474;-51
2023/08/30 12:24:17;;;;;;;3.37;1.67;;;19.70;74.60;;;;;;5059191;28;20437;-51
2023/08/30 12:26:46;;;;;;;1.93;1.13;;;19.70;74.90;;;;;;5061950;28;20470;-50
2023/08/30 12:29:14;;;;;;;1.53;1.33;;;19.70;74.00;;;;;;5053551;28;20592;-51
2023/08/30 12:31:43;;;;;;;1.90;1.33;;;19.70;74.20;;;;;;5056862;28;20558;-52
2023/08/30 12:34:16;;;;;;;1.87;1.57;;;19.70;74.60;;;;;;5053891;28;20999;-49
2023/08/30 12:36:45;;;;;;;2.57;1.50;;;19.70;74.00;;;;;;5060488;28;20470;-51
2023/08/30 12:39:13;;;;;;;2.30;1.30;;;19.70;74.00;;;;;;5055295;28;20803;-52
2023/08/30 12:41:42;;;;;;;1.50;1.10;;;19.70;74.50;;;;;;5059752;28;20554;-50
2023/08/30 12:44:11;;;;;;;1.50;1.20;;;19.70;73.90;;;;;;5052789;28;20539;-52
2023/08/30 12:46:40;;;;;;;2.13;1.17;;;19.70;74.10;;;;;;5056091;28;21011;-50
2023/08/30 12:49:08;;;;;;;2.27;1.60;;;19.70;74.40;;;;;;5059063;28;20549;-50
2023/08/30 12:51:38;;;;;;;1.93;1.40;;;19.70;73.80;;;;;;5052087;28;20525;-50
2023/08/30 12:54:07;;;;;;;1.77;1.20;;;19.70;73.60;;;;;;5059757;28;20460;-52
2023/08/30 12:56:36;;;;;;;2.07;1.50;;;19.70;73.40;;;;;;5050358;28;20528;-50
2023/08/30 12:59:04;;;;;;;1.40;1.23;;;19.70;73.90;;;;;;5055186;28;21084;-52
2023/08/30 13:01:33;;;;;;;1.77;1.37;;;19.70;73.40;;;;;;5053878;28;20673;-50